sensor_id;sensor_type;location;lat;lon;timestamp;temperature;humidity
61392;DHT22;47261;52.892;5.738;2023-07-29T00:01:27;19.80;99.90
61392;DHT22;47261;52.892;5.738;2023-07-29T00:03:53;19.80;99.90
61392;DHT22;47261;52.892;5.738;2023-07-29T00:06:18;19.80;99.90
61392;DHT22;47261;52.892;5.738;2023-07-29T00:08:44;19.70;99.90
61392;DHT22;47261;52.892;5.738;2023-07-29T00:11:09;19.70;99.90
61392;DHT22;47261;52.892;5.738;2023-07-29T00:13:35;19.70;99.90
61392;DHT22;47261;52.892;5.738;2023-07-29T00:16:01;19.70;99.90
61392;DHT22;47261;52.892;5.738;2023-07-29T00:18:26;19.70;99.90
61392;DHT22;47261;52.892;5.738;2023-07-29T00:20:53;19.60;99.90
61392;DHT22;47261;52.892;5.738;2023-07-29T00:23:18;19.60;99.90
61392;DHT22;47261;52.892;5.738;2023-07-29T00:25:45;19.60;99.90
61392;DHT22;47261;52.892;5.738;2023-07-29T00:28:11;19.60;99.90
61392;DHT22;47261;52.892;5.738;2023-07-29T00:30:37;19.60;99.90
61392;DHT22;47261;52.892;5.738;2023-07-29T00:33:03;19.60;99.90
61392;DHT22;47261;52.892;5.738;2023-07-29T00:35:28;19.50;99.90
61392;DHT22;47261;52.892;5.738;2023-07-29T00:37:54;19.50;99.90
61392;DHT22;47261;52.892;5.738;2023-07-29T00:40:21;19.50;99.90
61392;DHT22;47261;52.892;5.738;2023-07-29T00:42:48;19.50;99.90
61392;DHT22;47261;52.892;5.738;2023-07-29T00:45:14;19.50;99.90
61392;DHT22;47261;52.892;5.738;2023-07-29T00:47:41;19.50;99.90
61392;DHT22;47261;52.892;5.738;2023-07-29T00:50:08;19.50;99.90
61392;DHT22;47261;52.892;5.738;2023-07-29T00:52:34;19.50;99.90
61392;DHT22;47261;52.892;5.738;2023-07-29T00:55:00;19.40;99.90
61392;DHT22;47261;52.892;5.738;2023-07-29T00:57:26;19.40;99.90
61392;DHT22;47261;52.892;5.738;2023-07-29T00:59:54;19.40;99.90
61392;DHT22;47261;52.892;5.738;2023-07-29T01:02:20;19.40;99.90
61392;DHT22;47261;52.892;5.738;2023-07-29T01:04:45;19.40;99.90
61392;DHT22;47261;52.892;5.738;2023-07-29T01:07:29;19.40;99.90
61392;DHT22;47261;52.892;5.738;2023-07-29T01:10:07;19.40;99.90
61392;DHT22;47261;52.892;5.738;2023-07-29T01:13:06;19.30;99.90
61392;DHT22;47261;52.892;5.738;2023-07-29T01:16:02;19.30;99.90
61392;DHT22;47261;52.892;5.738;2023-07-29T01:18:31;19.30;99.90
61392;DHT22;47261;52.892;5.738;2023-07-29T01:21:03;19.20;99.90
61392;DHT22;47261;52.892;5.738;2023-07-29T01:23:34;19.30;99.90
61392;DHT22;47261;52.892;5.738;2023-07-29T01:26:00;19.20;99.90
61392;DHT22;47261;52.892;5.738;2023-07-29T01:28:27;19.20;99.90
61392;DHT22;47261;52.892;5.738;2023-07-29T01:31:01;19.20;99.90
61392;DHT22;47261;52.892;5.738;2023-07-29T01:33:33;19.20;99.90
61392;DHT22;47261;52.892;5.738;2023-07-29T01:36:07;19.20;99.90
61392;DHT22;47261;52.892;5.738;2023-07-29T01:38:36;19.20;99.90
61392;DHT22;47261;52.892;5.738;2023-07-29T01:41:04;19.10;99.90
61392;DHT22;47261;52.892;5.738;2023-07-29T01:43:31;19.10;99.90
61392;DHT22;47261;52.892;5.738;2023-07-29T01:45:58;19.10;99.90
61392;DHT22;47261;52.892;5.738;2023-07-29T01:48:24;19.10;99.90
61392;DHT22;47261;52.892;5.738;2023-07-29T01:50:50;19.10;99.90
61392;DHT22;47261;52.892;5.738;2023-07-29T01:53:15;19.10;99.90
61392;DHT22;47261;52.892;5.738;2023-07-29T01:55:44;19.10;99.90
61392;DHT22;47261;52.892;5.738;2023-07-29T01:58:10;19.10;99.90
61392;DHT22;47261;52.892;5.738;2023-07-29T02:00:36;19.10;99.90
61392;DHT22;47261;52.892;5.738;2023-07-29T02:03:02;19.10;99.90
61392;DHT22;47261;52.892;5.738;2023-07-29T02:05:27;19.00;99.90
61392;DHT22;47261;52.892;5.738;2023-07-29T02:07:53;19.00;99.90
61392;DHT22;47261;52.892;5.738;2023-07-29T02:10:19;19.00;99.90
61392;DHT22;47261;52.892;5.738;2023-07-29T02:12:44;19.00;99.90
61392;DHT22;47261;52.892;5.738;2023-07-29T02:15:10;19.00;99.90
61392;DHT22;47261;52.892;5.738;2023-07-29T02:17:36;19.00;99.90
61392;DHT22;47261;52.892;5.738;2023-07-29T02:20:03;18.90;99.90
61392;DHT22;47261;52.892;5.738;2023-07-29T02:22:29;19.00;99.90
61392;DHT22;47261;52.892;5.738;2023-07-29T02:24:55;19.00;99.90
61392;DHT22;47261;52.892;5.738;2023-07-29T02:27:20;18.90;99.90
61392;DHT22;47261;52.892;5.738;2023-07-29T02:29:46;18.90;99.90
61392;DHT22;47261;52.892;5.738;2023-07-29T02:32:12;18.90;99.90
61392;DHT22;47261;52.892;5.738;2023-07-29T02:34:37;18.90;99.90
61392;DHT22;47261;52.892;5.738;2023-07-29T02:37:03;18.80;99.90
61392;DHT22;47261;52.892;5.738;2023-07-29T02:39:29;18.90;99.90
61392;DHT22;47261;52.892;5.738;2023-07-29T02:41:54;18.80;99.90
61392;DHT22;47261;52.892;5.738;2023-07-29T02:44:21;18.80;99.90
61392;DHT22;47261;52.892;5.738;2023-07-29T02:46:47;18.80;99.90
61392;DHT22;47261;52.892;5.738;2023-07-29T02:49:12;18.80;99.90
61392;DHT22;47261;52.892;5.738;2023-07-29T02:51:38;18.80;99.90
61392;DHT22;47261;52.892;5.738;2023-07-29T02:54:03;18.80;99.90
61392;DHT22;47261;52.892;5.738;2023-07-29T02:56:29;18.80;99.90
61392;DHT22;47261;52.892;5.738;2023-07-29T02:58:56;18.80;99.90
61392;DHT22;47261;52.892;5.738;2023-07-29T03:01:23;18.80;99.90
61392;DHT22;47261;52.892;5.738;2023-07-29T03:03:50;18.80;99.90
61392;DHT22;47261;52.892;5.738;2023-07-29T03:06:16;18.80;99.90
61392;DHT22;47261;52.892;5.738;2023-07-29T03:08:42;18.80;99.90
61392;DHT22;47261;52.892;5.738;2023-07-29T03:11:09;18.80;99.90
61392;DHT22;47261;52.892;5.738;2023-07-29T03:13:36;18.70;99.90
61392;DHT22;47261;52.892;5.738;2023-07-29T03:16:06;18.70;99.90
61392;DHT22;47261;52.892;5.738;2023-07-29T03:18:32;18.70;99.90
61392;DHT22;47261;52.892;5.738;2023-07-29T03:20:57;18.70;99.90
61392;DHT22;47261;52.892;5.738;2023-07-29T03:23:23;18.70;99.90
61392;DHT22;47261;52.892;5.738;2023-07-29T03:25:49;18.70;99.90
61392;DHT22;47261;52.892;5.738;2023-07-29T03:28:17;18.70;99.90
61392;DHT22;47261;52.892;5.738;2023-07-29T03:30:42;18.70;99.90
61392;DHT22;47261;52.892;5.738;2023-07-29T03:33:08;18.70;99.90
61392;DHT22;47261;52.892;5.738;2023-07-29T03:35:33;18.70;99.90
61392;DHT22;47261;52.892;5.738;2023-07-29T03:37:59;18.70;99.90
61392;DHT22;47261;52.892;5.738;2023-07-29T03:40:25;18.70;99.90
61392;DHT22;47261;52.892;5.738;2023-07-29T03:42:50;18.80;99.90
61392;DHT22;47261;52.892;5.738;2023-07-29T03:45:16;18.80;99.90
61392;DHT22;47261;52.892;5.738;2023-07-29T03:47:41;18.80;99.90
61392;DHT22;47261;52.892;5.738;2023-07-29T03:50:07;18.80;99.90
61392;DHT22;47261;52.892;5.738;2023-07-29T03:52:33;18.80;99.90
61392;DHT22;47261;52.892;5.738;2023-07-29T03:54:59;18.80;99.90
61392;DHT22;47261;52.892;5.738;2023-07-29T03:57:25;18.80;99.90
61392;DHT22;47261;52.892;5.738;2023-07-29T03:59:50;18.80;99.90
61392;DHT22;47261;52.892;5.738;2023-07-29T04:02:16;18.80;99.90
61392;DHT22;47261;52.892;5.738;2023-07-29T04:04:41;18.80;99.90
61392;DHT22;47261;52.892;5.738;2023-07-29T04:07:09;18.90;99.90
61392;DHT22;47261;52.892;5.738;2023-07-29T04:09:35;18.80;99.90
61392;DHT22;47261;52.892;5.738;2023-07-29T04:12:01;18.80;99.90
61392;DHT22;47261;52.892;5.738;2023-07-29T04:14:27;18.80;99.90
61392;DHT22;47261;52.892;5.738;2023-07-29T04:16:52;18.80;99.90
61392;DHT22;47261;52.892;5.738;2023-07-29T04:19:18;18.80;99.90
61392;DHT22;47261;52.892;5.738;2023-07-29T04:21:44;18.80;99.90
61392;DHT22;47261;52.892;5.738;2023-07-29T04:24:09;18.80;99.90
61392;DHT22;47261;52.892;5.738;2023-07-29T04:26:35;18.80;99.90
61392;DHT22;47261;52.892;5.738;2023-07-29T04:29:00;18.80;99.90
61392;DHT22;47261;52.892;5.738;2023-07-29T04:31:26;18.80;99.90
61392;DHT22;47261;52.892;5.738;2023-07-29T04:33:52;18.80;99.90
61392;DHT22;47261;52.892;5.738;2023-07-29T04:36:17;18.80;99.90
61392;DHT22;47261;52.892;5.738;2023-07-29T04:38:43;18.80;99.90
61392;DHT22;47261;52.892;5.738;2023-07-29T04:41:08;18.90;99.90
61392;DHT22;47261;52.892;5.738;2023-07-29T04:43:34;18.90;99.90
61392;DHT22;47261;52.892;5.738;2023-07-29T04:46:06;18.90;99.90
61392;DHT22;47261;52.892;5.738;2023-07-29T04:48:33;18.90;99.90
61392;DHT22;47261;52.892;5.738;2023-07-29T04:50:58;18.90;99.90
61392;DHT22;47261;52.892;5.738;2023-07-29T04:53:24;18.90;99.90
61392;DHT22;47261;52.892;5.738;2023-07-29T04:55:50;18.90;99.90
61392;DHT22;47261;52.892;5.738;2023-07-29T04:58:15;18.90;99.90
61392;DHT22;47261;52.892;5.738;2023-07-29T05:00:41;18.90;99.90
61392;DHT22;47261;52.892;5.738;2023-07-29T05:03:07;19.00;99.90
61392;DHT22;47261;52.892;5.738;2023-07-29T05:05:32;19.00;99.90
61392;DHT22;47261;52.892;5.738;2023-07-29T05:07:58;19.00;99.90
61392;DHT22;47261;52.892;5.738;2023-07-29T05:10:23;19.00;99.90
61392;DHT22;47261;52.892;5.738;2023-07-29T05:12:49;19.00;99.90
61392;DHT22;47261;52.892;5.738;2023-07-29T05:15:15;19.00;99.90
61392;DHT22;47261;52.892;5.738;2023-07-29T05:17:40;19.00;99.90
61392;DHT22;47261;52.892;5.738;2023-07-29T05:20:07;19.00;99.90
61392;DHT22;47261;52.892;5.738;2023-07-29T05:22:32;19.00;99.90
61392;DHT22;47261;52.892;5.738;2023-07-29T05:24:58;19.00;99.90
61392;DHT22;47261;52.892;5.738;2023-07-29T05:27:23;19.00;99.90
61392;DHT22;47261;52.892;5.738;2023-07-29T05:29:49;19.00;99.90
61392;DHT22;47261;52.892;5.738;2023-07-29T05:32:15;19.00;99.90
61392;DHT22;47261;52.892;5.738;2023-07-29T05:34:40;19.00;99.90
61392;DHT22;47261;52.892;5.738;2023-07-29T05:37:06;19.00;99.90
61392;DHT22;47261;52.892;5.738;2023-07-29T05:39:31;19.10;99.90
61392;DHT22;47261;52.892;5.738;2023-07-29T05:41:58;19.10;99.90
61392;DHT22;47261;52.892;5.738;2023-07-29T05:44:24;19.10;99.90
61392;DHT22;47261;52.892;5.738;2023-07-29T05:46:49;19.10;99.90
61392;DHT22;47261;52.892;5.738;2023-07-29T05:49:15;19.10;99.90
61392;DHT22;47261;52.892;5.738;2023-07-29T05:51:41;19.20;99.90
61392;DHT22;47261;52.892;5.738;2023-07-29T05:54:06;19.20;99.90
61392;DHT22;47261;52.892;5.738;2023-07-29T05:56:32;19.30;99.90
61392;DHT22;47261;52.892;5.738;2023-07-29T05:58:58;19.30;99.90
61392;DHT22;47261;52.892;5.738;2023-07-29T06:01:23;19.40;99.90
61392;DHT22;47261;52.892;5.738;2023-07-29T06:03:49;19.40;99.90
61392;DHT22;47261;52.892;5.738;2023-07-29T06:06:15;19.50;99.90
61392;DHT22;47261;52.892;5.738;2023-07-29T06:08:41;19.60;99.90
61392;DHT22;47261;52.892;5.738;2023-07-29T06:11:06;19.70;99.90
61392;DHT22;47261;52.892;5.738;2023-07-29T06:13:32;19.70;99.90
61392;DHT22;47261;52.892;5.738;2023-07-29T06:15:58;19.80;99.90
61392;DHT22;47261;52.892;5.738;2023-07-29T06:18:24;19.70;99.90
61392;DHT22;47261;52.892;5.738;2023-07-29T06:20:50;19.70;99.90
61392;DHT22;47261;52.892;5.738;2023-07-29T06:23:16;19.80;99.90
61392;DHT22;47261;52.892;5.738;2023-07-29T06:25:42;19.70;99.90
61392;DHT22;47261;52.892;5.738;2023-07-29T06:28:09;19.70;99.90
61392;DHT22;47261;52.892;5.738;2023-07-29T06:30:34;19.80;99.90
61392;DHT22;47261;52.892;5.738;2023-07-29T06:33:00;19.80;99.90
61392;DHT22;47261;52.892;5.738;2023-07-29T06:35:26;19.80;99.90
61392;DHT22;47261;52.892;5.738;2023-07-29T06:37:51;19.80;99.90
61392;DHT22;47261;52.892;5.738;2023-07-29T06:40:17;19.80;99.90
61392;DHT22;47261;52.892;5.738;2023-07-29T06:42:42;19.80;99.90
61392;DHT22;47261;52.892;5.738;2023-07-29T06:45:08;19.80;99.90
61392;DHT22;47261;52.892;5.738;2023-07-29T06:47:35;19.70;99.90
61392;DHT22;47261;52.892;5.738;2023-07-29T06:50:01;19.70;99.90
61392;DHT22;47261;52.892;5.738;2023-07-29T06:52:26;19.70;99.90
61392;DHT22;47261;52.892;5.738;2023-07-29T06:54:52;19.70;99.90
61392;DHT22;47261;52.892;5.738;2023-07-29T06:57:18;19.80;99.90
61392;DHT22;47261;52.892;5.738;2023-07-29T06:59:43;20.00;99.90
61392;DHT22;47261;52.892;5.738;2023-07-29T07:02:09;20.20;99.90
61392;DHT22;47261;52.892;5.738;2023-07-29T07:04:34;20.30;99.90
61392;DHT22;47261;52.892;5.738;2023-07-29T07:07:00;20.40;99.90
61392;DHT22;47261;52.892;5.738;2023-07-29T07:09:26;20.50;99.90
61392;DHT22;47261;52.892;5.738;2023-07-29T07:11:51;20.60;99.90
61392;DHT22;47261;52.892;5.738;2023-07-29T07:14:18;20.60;99.90
61392;DHT22;47261;52.892;5.738;2023-07-29T07:16:44;20.60;99.60
61392;DHT22;47261;52.892;5.738;2023-07-29T07:19:10;20.50;99.30
61392;DHT22;47261;52.892;5.738;2023-07-29T07:21:36;20.50;99.50
61392;DHT22;47261;52.892;5.738;2023-07-29T07:24:01;20.50;99.80
61392;DHT22;47261;52.892;5.738;2023-07-29T07:26:27;20.50;99.90
61392;DHT22;47261;52.892;5.738;2023-07-29T07:28:53;20.50;99.90
61392;DHT22;47261;52.892;5.738;2023-07-29T07:31:19;20.50;99.90
61392;DHT22;47261;52.892;5.738;2023-07-29T07:33:44;20.60;99.90
61392;DHT22;47261;52.892;5.738;2023-07-29T07:36:10;20.60;99.90
61392;DHT22;47261;52.892;5.738;2023-07-29T07:38:36;20.60;99.90
61392;DHT22;47261;52.892;5.738;2023-07-29T07:41:02;20.70;99.90
61392;DHT22;47261;52.892;5.738;2023-07-29T07:43:28;20.70;99.80
61392;DHT22;47261;52.892;5.738;2023-07-29T07:46:00;20.80;99.80
61392;DHT22;47261;52.892;5.738;2023-07-29T07:48:27;20.80;99.40
61392;DHT22;47261;52.892;5.738;2023-07-29T07:50:53;20.80;99.10
61392;DHT22;47261;52.892;5.738;2023-07-29T07:53:19;20.80;99.50
61392;DHT22;47261;52.892;5.738;2023-07-29T07:55:45;20.80;99.60
61392;DHT22;47261;52.892;5.738;2023-07-29T07:58:11;20.80;99.70
61392;DHT22;47261;52.892;5.738;2023-07-29T08:00:37;20.90;99.50
61392;DHT22;47261;52.892;5.738;2023-07-29T08:03:03;20.90;99.40
61392;DHT22;47261;52.892;5.738;2023-07-29T08:05:29;21.00;99.00
61392;DHT22;47261;52.892;5.738;2023-07-29T08:07:55;21.00;99.20
61392;DHT22;47261;52.892;5.738;2023-07-29T08:10:21;21.10;99.40
61392;DHT22;47261;52.892;5.738;2023-07-29T08:12:46;21.20;99.50
61392;DHT22;47261;52.892;5.738;2023-07-29T08:15:12;21.40;99.30
61392;DHT22;47261;52.892;5.738;2023-07-29T08:17:38;21.60;99.00
61392;DHT22;47261;52.892;5.738;2023-07-29T08:20:04;21.70;98.40
61392;DHT22;47261;52.892;5.738;2023-07-29T08:22:29;21.70;97.70
61392;DHT22;47261;52.892;5.738;2023-07-29T08:24:55;21.60;97.80
61392;DHT22;47261;52.892;5.738;2023-07-29T08:27:21;21.60;97.90
61392;DHT22;47261;52.892;5.738;2023-07-29T08:29:46;21.70;98.10
61392;DHT22;47261;52.892;5.738;2023-07-29T08:32:12;21.80;98.30
61392;DHT22;47261;52.892;5.738;2023-07-29T08:34:38;21.90;97.70
61392;DHT22;47261;52.892;5.738;2023-07-29T08:37:03;21.80;97.60
61392;DHT22;47261;52.892;5.738;2023-07-29T08:39:29;21.90;97.60
61392;DHT22;47261;52.892;5.738;2023-07-29T08:42:04;21.80;97.20
61392;DHT22;47261;52.892;5.738;2023-07-29T08:44:36;21.80;97.20
61392;DHT22;47261;52.892;5.738;2023-07-29T08:47:05;21.70;97.50
61392;DHT22;47261;52.892;5.738;2023-07-29T08:49:31;21.60;97.70
61392;DHT22;47261;52.892;5.738;2023-07-29T08:51:57;21.60;97.80
61392;DHT22;47261;52.892;5.738;2023-07-29T08:54:23;21.50;97.80
61392;DHT22;47261;52.892;5.738;2023-07-29T08:56:50;21.50;97.70
61392;DHT22;47261;52.892;5.738;2023-07-29T08:59:16;21.50;98.10
61392;DHT22;47261;52.892;5.738;2023-07-29T09:01:43;21.50;97.60
61392;DHT22;47261;52.892;5.738;2023-07-29T09:04:09;21.50;97.60
61392;DHT22;47261;52.892;5.738;2023-07-29T09:06:35;21.50;97.70
61392;DHT22;47261;52.892;5.738;2023-07-29T09:09:03;21.50;97.80
61392;DHT22;47261;52.892;5.738;2023-07-29T09:11:30;21.50;97.80
61392;DHT22;47261;52.892;5.738;2023-07-29T09:13:56;21.50;98.20
61392;DHT22;47261;52.892;5.738;2023-07-29T09:16:22;21.50;98.40
61392;DHT22;47261;52.892;5.738;2023-07-29T09:18:51;21.60;98.90
61392;DHT22;47261;52.892;5.738;2023-07-29T09:21:24;21.80;97.90
61392;DHT22;47261;52.892;5.738;2023-07-29T09:23:54;21.90;97.40
61392;DHT22;47261;52.892;5.738;2023-07-29T09:26:27;21.90;97.10
61392;DHT22;47261;52.892;5.738;2023-07-29T09:28:57;21.90;97.10
61392;DHT22;47261;52.892;5.738;2023-07-29T09:31:25;21.90;97.00
61392;DHT22;47261;52.892;5.738;2023-07-29T09:34:02;21.90;97.20
61392;DHT22;47261;52.892;5.738;2023-07-29T09:36:31;21.90;97.40
61392;DHT22;47261;52.892;5.738;2023-07-29T09:38:57;22.10;97.50
61392;DHT22;47261;52.892;5.738;2023-07-29T09:41:24;22.20;97.00
61392;DHT22;47261;52.892;5.738;2023-07-29T09:43:58;22.30;96.80
61392;DHT22;47261;52.892;5.738;2023-07-29T09:46:25;22.50;97.10
61392;DHT22;47261;52.892;5.738;2023-07-29T09:48:56;22.80;96.30
61392;DHT22;47261;52.892;5.738;2023-07-29T09:51:22;23.10;96.30
61392;DHT22;47261;52.892;5.738;2023-07-29T09:53:49;23.20;95.20
61392;DHT22;47261;52.892;5.738;2023-07-29T09:56:15;23.00;95.50
61392;DHT22;47261;52.892;5.738;2023-07-29T09:58:45;22.70;95.90
61392;DHT22;47261;52.892;5.738;2023-07-29T10:01:12;22.40;96.00
61392;DHT22;47261;52.892;5.738;2023-07-29T10:03:38;22.20;96.10
61392;DHT22;47261;52.892;5.738;2023-07-29T10:06:05;22.00;97.00
61392;DHT22;47261;52.892;5.738;2023-07-29T10:08:31;22.00;97.10
61392;DHT22;47261;52.892;5.738;2023-07-29T10:10:59;21.90;97.10
61392;DHT22;47261;52.892;5.738;2023-07-29T10:13:26;21.90;97.20
61392;DHT22;47261;52.892;5.738;2023-07-29T10:15:53;21.70;97.60
61392;DHT22;47261;52.892;5.738;2023-07-29T10:18:20;21.60;97.70
61392;DHT22;47261;52.892;5.738;2023-07-29T10:20:48;21.50;97.90
61392;DHT22;47261;52.892;5.738;2023-07-29T10:23:18;21.40;98.30
61392;DHT22;47261;52.892;5.738;2023-07-29T10:25:49;21.20;98.10
61392;DHT22;47261;52.892;5.738;2023-07-29T10:28:15;21.10;98.30
61392;DHT22;47261;52.892;5.738;2023-07-29T10:30:42;21.00;99.00
61392;DHT22;47261;52.892;5.738;2023-07-29T10:33:07;21.00;99.80
61392;DHT22;47261;52.892;5.738;2023-07-29T10:35:34;21.10;99.90
61392;DHT22;47261;52.892;5.738;2023-07-29T10:38:02;21.30;99.90
61392;DHT22;47261;52.892;5.738;2023-07-29T10:40:53;21.60;99.80
61392;DHT22;47261;52.892;5.738;2023-07-29T10:43:27;21.70;97.50
61392;DHT22;47261;52.892;5.738;2023-07-29T10:45:54;21.80;96.70
61392;DHT22;47261;52.892;5.738;2023-07-29T10:53:53;22.30;95.80
61392;DHT22;47261;52.892;5.738;2023-07-29T10:56:30;22.40;95.00
61392;DHT22;47261;52.892;5.738;2023-07-29T10:58:58;22.50;95.30
61392;DHT22;47261;52.892;5.738;2023-07-29T11:01:31;22.40;95.00
61392;DHT22;47261;52.892;5.738;2023-07-29T11:09:51;22.00;95.70
61392;DHT22;47261;52.892;5.738;2023-07-29T11:18:00;21.60;96.60
61392;DHT22;47261;52.892;5.738;2023-07-29T11:20:30;21.70;97.40
61392;DHT22;47261;52.892;5.738;2023-07-29T11:22:57;21.80;96.90
61392;DHT22;47261;52.892;5.738;2023-07-29T11:25:25;21.80;96.70
61392;DHT22;47261;52.892;5.738;2023-07-29T11:27:56;21.90;96.80
61392;DHT22;47261;52.892;5.738;2023-07-29T11:30:22;22.00;96.40
61392;DHT22;47261;52.892;5.738;2023-07-29T11:32:55;22.30;96.60
61392;DHT22;47261;52.892;5.738;2023-07-29T11:35:21;22.70;95.80
61392;DHT22;47261;52.892;5.738;2023-07-29T11:37:49;23.00;94.80
61392;DHT22;47261;52.892;5.738;2023-07-29T11:40:18;23.10;94.00
61392;DHT22;47261;52.892;5.738;2023-07-29T11:42:45;23.10;93.90
61392;DHT22;47261;52.892;5.738;2023-07-29T11:45:11;23.00;94.30
61392;DHT22;47261;52.892;5.738;2023-07-29T11:47:36;23.00;94.00
61392;DHT22;47261;52.892;5.738;2023-07-29T11:50:07;22.90;93.50
61392;DHT22;47261;52.892;5.738;2023-07-29T11:52:40;22.80;93.90
61392;DHT22;47261;52.892;5.738;2023-07-29T11:55:06;22.80;94.20
61392;DHT22;47261;52.892;5.738;2023-07-29T11:57:39;22.70;94.30
61392;DHT22;47261;52.892;5.738;2023-07-29T12:00:06;22.60;94.30
61392;DHT22;47261;52.892;5.738;2023-07-29T12:02:41;22.50;94.30
61392;DHT22;47261;52.892;5.738;2023-07-29T12:05:08;22.20;94.60
61392;DHT22;47261;52.892;5.738;2023-07-29T12:07:35;22.00;95.20
61392;DHT22;47261;52.892;5.738;2023-07-29T12:10:02;21.80;95.90
61392;DHT22;47261;52.892;5.738;2023-07-29T12:12:29;21.60;96.40
61392;DHT22;47261;52.892;5.738;2023-07-29T12:14:55;21.60;97.00
61392;DHT22;47261;52.892;5.738;2023-07-29T12:17:21;21.70;97.40
61392;DHT22;47261;52.892;5.738;2023-07-29T12:19:46;21.70;97.10
61392;DHT22;47261;52.892;5.738;2023-07-29T12:22:18;21.80;95.80
61392;DHT22;47261;52.892;5.738;2023-07-29T12:24:44;22.00;96.10
61392;DHT22;47261;52.892;5.738;2023-07-29T12:27:13;22.30;96.00
61392;DHT22;47261;52.892;5.738;2023-07-29T12:29:44;22.50;94.90
61392;DHT22;47261;52.892;5.738;2023-07-29T12:32:11;22.60;93.50
61392;DHT22;47261;52.892;5.738;2023-07-29T12:34:38;22.70;93.10
61392;DHT22;47261;52.892;5.738;2023-07-29T12:37:07;22.80;94.10
61392;DHT22;47261;52.892;5.738;2023-07-29T12:39:34;22.80;93.00
61392;DHT22;47261;52.892;5.738;2023-07-29T12:42:01;22.80;92.70
61392;DHT22;47261;52.892;5.738;2023-07-29T12:44:32;22.80;93.20
61392;DHT22;47261;52.892;5.738;2023-07-29T12:46:58;23.00;92.80
61392;DHT22;47261;52.892;5.738;2023-07-29T12:49:24;23.20;92.70
61392;DHT22;47261;52.892;5.738;2023-07-29T12:51:50;23.30;92.10
61392;DHT22;47261;52.892;5.738;2023-07-29T12:54:15;23.40;91.90
61392;DHT22;47261;52.892;5.738;2023-07-29T12:56:41;23.30;92.10
61392;DHT22;47261;52.892;5.738;2023-07-29T12:59:07;23.10;91.90
61392;DHT22;47261;52.892;5.738;2023-07-29T13:01:32;23.10;92.60
61392;DHT22;47261;52.892;5.738;2023-07-29T13:03:58;23.20;92.50
61392;DHT22;47261;52.892;5.738;2023-07-29T13:06:24;23.20;92.50
61392;DHT22;47261;52.892;5.738;2023-07-29T13:08:49;23.30;92.40
61392;DHT22;47261;52.892;5.738;2023-07-29T13:11:16;23.30;92.30
61392;DHT22;47261;52.892;5.738;2023-07-29T13:13:42;23.40;92.40
61392;DHT22;47261;52.892;5.738;2023-07-29T13:16:07;23.50;92.20
61392;DHT22;47261;52.892;5.738;2023-07-29T13:18:33;23.60;90.30
61392;DHT22;47261;52.892;5.738;2023-07-29T13:21:00;23.60;90.80
61392;DHT22;47261;52.892;5.738;2023-07-29T13:23:26;23.50;90.10
61392;DHT22;47261;52.892;5.738;2023-07-29T13:25:52;23.60;90.80
61392;DHT22;47261;52.892;5.738;2023-07-29T13:28:18;23.60;89.80
61392;DHT22;47261;52.892;5.738;2023-07-29T13:30:44;23.60;89.30
61392;DHT22;47261;52.892;5.738;2023-07-29T13:33:10;23.60;89.50
61392;DHT22;47261;52.892;5.738;2023-07-29T13:35:36;23.60;89.30
61392;DHT22;47261;52.892;5.738;2023-07-29T13:38:02;23.60;90.00
61392;DHT22;47261;52.892;5.738;2023-07-29T13:40:28;23.60;89.30
61392;DHT22;47261;52.892;5.738;2023-07-29T13:42:54;23.60;88.70
61392;DHT22;47261;52.892;5.738;2023-07-29T13:45:20;23.60;88.60
61392;DHT22;47261;52.892;5.738;2023-07-29T13:47:46;23.50;87.60
61392;DHT22;47261;52.892;5.738;2023-07-29T13:50:12;23.50;87.90
61392;DHT22;47261;52.892;5.738;2023-07-29T13:52:38;23.50;87.90
61392;DHT22;47261;52.892;5.738;2023-07-29T13:55:05;23.60;89.10
61392;DHT22;47261;52.892;5.738;2023-07-29T13:57:31;23.60;89.40
61392;DHT22;47261;52.892;5.738;2023-07-29T13:59:57;23.60;89.10
61392;DHT22;47261;52.892;5.738;2023-07-29T14:02:22;23.70;88.70
61392;DHT22;47261;52.892;5.738;2023-07-29T14:04:48;23.70;88.80
61392;DHT22;47261;52.892;5.738;2023-07-29T14:07:14;23.80;89.10
61392;DHT22;47261;52.892;5.738;2023-07-29T14:09:39;23.90;88.70
61392;DHT22;47261;52.892;5.738;2023-07-29T14:12:06;24.00;87.40
61392;DHT22;47261;52.892;5.738;2023-07-29T14:14:32;24.00;87.50
61392;DHT22;47261;52.892;5.738;2023-07-29T14:16:57;24.10;87.90
61392;DHT22;47261;52.892;5.738;2023-07-29T14:19:24;24.10;87.50
61392;DHT22;47261;52.892;5.738;2023-07-29T14:21:49;24.20;87.00
61392;DHT22;47261;52.892;5.738;2023-07-29T14:24:15;24.30;86.50
61392;DHT22;47261;52.892;5.738;2023-07-29T14:26:42;24.30;86.50
61392;DHT22;47261;52.892;5.738;2023-07-29T14:29:07;24.40;86.40
61392;DHT22;47261;52.892;5.738;2023-07-29T14:31:33;24.40;85.90
61392;DHT22;47261;52.892;5.738;2023-07-29T14:33:59;24.40;85.70
61392;DHT22;47261;52.892;5.738;2023-07-29T14:36:25;24.40;85.70
61392;DHT22;47261;52.892;5.738;2023-07-29T14:38:51;24.30;85.30
61392;DHT22;47261;52.892;5.738;2023-07-29T14:41:17;24.30;86.30
61392;DHT22;47261;52.892;5.738;2023-07-29T14:43:43;24.20;86.20
61392;DHT22;47261;52.892;5.738;2023-07-29T14:46:22;24.30;85.90
61392;DHT22;47261;52.892;5.738;2023-07-29T14:48:52;24.20;86.00
61392;DHT22;47261;52.892;5.738;2023-07-29T14:51:18;24.00;87.00
61392;DHT22;47261;52.892;5.738;2023-07-29T14:53:44;23.90;88.40
61392;DHT22;47261;52.892;5.738;2023-07-29T14:56:10;23.90;88.00
61392;DHT22;47261;52.892;5.738;2023-07-29T14:58:35;23.80;88.10
61392;DHT22;47261;52.892;5.738;2023-07-29T15:01:01;23.80;89.20
61392;DHT22;47261;52.892;5.738;2023-07-29T15:03:27;23.80;87.40
61392;DHT22;47261;52.892;5.738;2023-07-29T15:05:53;23.70;87.90
61392;DHT22;47261;52.892;5.738;2023-07-29T15:08:19;23.60;87.80
61392;DHT22;47261;52.892;5.738;2023-07-29T15:10:46;23.50;88.10
61392;DHT22;47261;52.892;5.738;2023-07-29T15:13:11;23.30;88.00
61392;DHT22;47261;52.892;5.738;2023-07-29T15:15:40;23.20;89.10
61392;DHT22;47261;52.892;5.738;2023-07-29T15:18:06;23.10;90.00
61392;DHT22;47261;52.892;5.738;2023-07-29T15:20:32;23.10;90.20
61392;DHT22;47261;52.892;5.738;2023-07-29T15:22:57;22.90;90.30
61392;DHT22;47261;52.892;5.738;2023-07-29T15:25:23;22.80;90.60
61392;DHT22;47261;52.892;5.738;2023-07-29T15:27:48;22.70;90.80
61392;DHT22;47261;52.892;5.738;2023-07-29T15:30:14;22.50;91.00
61392;DHT22;47261;52.892;5.738;2023-07-29T15:32:40;22.40;91.40
61392;DHT22;47261;52.892;5.738;2023-07-29T15:35:07;22.30;91.80
61392;DHT22;47261;52.892;5.738;2023-07-29T15:37:33;22.30;92.30
61392;DHT22;47261;52.892;5.738;2023-07-29T15:39:59;22.30;92.60
61392;DHT22;47261;52.892;5.738;2023-07-29T15:42:24;22.40;93.00
61392;DHT22;47261;52.892;5.738;2023-07-29T15:44:50;22.40;92.60